Time;durP1;ratioP1;P1;durP2;ratioP2;P2;SDS_P1;SDS_P2;PMS_P1;PMS_P2;Temp;Humidity;BMP_temperature;BMP_pressure;BME280_temperature;BME280_humidity;BME280_pressure;Samples;Min_cycle;Max_cycle;Signal;HPM_P1;HPM_P2
2021/08/25 00:02:04;;;;;;;;;;;;;;;25.63;55.98;100797.50;5115445;27;1571;-59
2021/08/25 00:04:31;;;;;;;;;;;;;;;25.61;55.94;100804.81;5084929;28;1734;-59
2021/08/25 00:06:57;;;;;;;;;;;;;;;25.55;56.26;100811.50;5111027;28;1235;-58
2021/08/25 00:09:24;;;;;;;;;;;;;;;25.60;56.67;100797.75;5110863;28;1910;-60
2021/08/25 00:11:51;;;;;;;;;;;;;;;25.56;56.52;100802.53;5110281;28;1224;-58
2021/08/25 00:14:17;;;;;;;;;;;;;;;25.57;56.89;100808.69;5110429;28;1192;-59
2021/08/25 00:16:44;;;;;;;;;;;;;;;25.59;56.38;100798.75;5110559;28;1307;-59
2021/08/25 00:19:11;;;;;;;;;;;;;;;25.58;56.64;100805.06;5111177;28;1182;-59
2021/08/25 00:21:37;;;;;;;;;;;;;;;25.58;56.30;100800.56;5110778;28;1231;-59
2021/08/25 00:24:04;;;;;;;;;;;;;;;25.59;56.33;100796.09;5110856;28;1183;-58
2021/08/25 00:26:31;;;;;;;;;;;;;;;25.56;56.46;100786.53;5110843;28;1254;-59
2021/08/25 00:28:58;;;;;;;;;;;;;;;25.57;56.41;100793.53;5110227;28;1910;-59
2021/08/25 00:31:25;;;;;;;;;;;;;;;25.54;56.31;100799.97;5110145;28;1307;-59
2021/08/25 00:33:52;;;;;;;;;;;;;;;25.58;55.98;100794.38;5110576;28;1243;-58
2021/08/25 00:36:19;;;;;;;;;;;;;;;25.57;56.13;100790.88;5091968;28;1233;-57
2021/08/25 00:38:45;;;;;;;;;;;;;;;25.60;56.08;100792.44;5110250;28;1176;-58
2021/08/25 00:41:12;;;;;;;;;;;;;;;25.60;56.05;100792.44;5110057;28;1274;-58
2021/08/25 00:43:39;;;;;;;;;;;;;;;25.57;56.34;100792.69;5110241;28;1091;-59
2021/08/25 00:46:06;;;;;;;;;;;;;;;25.56;56.03;100785.69;5109467;28;1310;-59
2021/08/25 00:48:33;;;;;;;;;;;;;;;25.56;56.03;100785.69;5110175;28;1953;-59
2021/08/25 00:51:00;;;;;;;;;;;;;;;25.54;56.15;100785.81;5109828;28;1181;-59
2021/08/25 00:53:27;;;;;;;;;;;;;;;25.53;56.38;100787.63;5090840;28;1487;-58
2021/08/25 00:56:04;;;;;;;;;;;;;;;25.52;56.37;100783.28;5109655;28;1252;-58
2021/08/25 00:58:31;;;;;;;;;;;;;;;25.51;56.65;100783.38;5110126;28;1067;-59
2021/08/25 01:01:05;;;;;;;;;;;;;;;25.51;56.42;100789.56;5109313;28;1235;-59
2021/08/25 01:03:37;;;;;;;;;;;;;;;25.52;56.33;100790.44;5109755;28;921;-58
2021/08/25 01:06:04;;;;;;;;;;;;;;;25.53;56.30;100789.47;5091010;28;1334;-58
2021/08/25 01:08:31;;;;;;;;;;;;;;;25.55;56.23;100779.50;5109645;28;1971;-59
2021/08/25 01:11:05;;;;;;;;;;;;;;;25.50;56.41;100785.22;5090665;28;1326;-59
2021/08/25 01:13:32;;;;;;;;;;;;;;;25.51;56.73;100778.06;5109459;28;890;-59
2021/08/25 01:15:59;;;;;;;;;;;;;;;25.53;56.52;100771.63;5109418;28;1271;-59
2021/08/25 01:18:26;;;;;;;;;;;;;;;25.52;56.19;100764.59;5109620;28;1075;-59
2021/08/25 01:20:54;;;;;;;;;;;;;;;25.52;56.23;100759.28;5109392;28;1259;-59
2021/08/25 01:23:22;;;;;;;;;;;;;;;25.54;56.61;100761.78;5109847;28;1127;-60
2021/08/25 01:26:07;;;;;;;;;;;;;;;25.58;56.37;100754.38;5109152;28;1331;-59
2021/08/25 01:28:35;;;;;;;;;;;;;;;25.53;56.42;100755.59;5109385;28;1964;-58
2021/08/25 01:31:03;;;;;;;;;;;;;;;25.52;56.21;100748.59;5109259;28;1330;-58
2021/08/25 01:33:30;;;;;;;;;;;;;;;25.51;56.18;100743.38;5109612;28;943;-58
2021/08/25 01:35:59;;;;;;;;;;;;;;;25.53;56.54;100744.13;5108778;28;1322;-59
2021/08/25 01:38:33;;;;;;;;;;;;;;;25.52;56.60;100748.59;5109101;28;1113;-59
2021/08/25 01:41:01;;;;;;;;;;;;;;;25.50;56.28;100744.38;5090786;28;1311;-58
2021/08/25 01:43:27;;;;;;;;;;;;;;;25.50;56.27;100749.72;5108962;28;1163;-59
2021/08/25 01:45:54;;;;;;;;;;;;;;;25.51;56.51;100746.91;5090740;28;1228;-58
2021/08/25 01:48:21;;;;;;;;;;;;;;;25.53;56.48;100738.78;5109091;28;1914;-59
2021/08/25 01:50:48;;;;;;;;;;;;;;;25.47;56.21;100729.44;5107512;28;1267;-58
2021/08/25 01:53:15;;;;;;;;;;;;;;;25.49;56.37;100724.00;5108830;28;1096;-58
2021/08/25 01:55:42;;;;;;;;;;;;;;;25.53;56.01;100720.13;5108707;28;1228;-57
2021/08/25 01:58:09;;;;;;;;;;;;;;;25.46;56.16;100716.25;5078900;28;1547;-58
2021/08/25 02:00:36;;;;;;;;;;;;;;;25.48;56.12;100704.50;5102408;28;1338;-57
2021/08/25 02:03:02;;;;;;;;;;;;;;;25.48;55.96;100704.50;5096217;28;1026;-57
2021/08/25 02:05:29;;;;;;;;;;;;;;;25.50;56.25;100702.53;5088360;28;1216;-57
2021/08/25 02:07:56;;;;;;;;;;;;;;;25.44;55.99;100702.22;5088086;28;1902;-58
2021/08/25 02:10:23;;;;;;;;;;;;;;;25.46;56.21;100703.75;5087866;28;1235;-58
2021/08/25 02:12:49;;;;;;;;;;;;;;;25.48;55.72;100696.50;5088248;28;1075;-59
2021/08/25 02:15:17;;;;;;;;;;;;;;;25.47;55.73;100691.28;5088061;28;810;-59
2021/08/25 02:17:43;;;;;;;;;;;;;;;25.47;55.94;100688.59;5088285;28;1224;-58
2021/08/25 02:20:10;;;;;;;;;;;;;;;25.46;56.06;100685.09;5088379;28;918;-58
2021/08/25 02:22:37;;;;;;;;;;;;;;;25.45;56.01;100672.72;5088174;28;1197;-59
2021/08/25 02:25:04;;;;;;;;;;;;;;;25.45;55.80;100666.53;5070019;28;773;-58
2021/08/25 02:27:30;;;;;;;;;;;;;;;25.44;56.08;100648.88;5087884;28;1229;-57
2021/08/25 02:29:57;;;;;;;;;;;;;;;25.44;56.40;100651.53;5088039;28;1902;-57
2021/08/25 02:32:24;;;;;;;;;;;;;;;25.44;56.26;100656.88;5088029;28;1240;-57
2021/08/25 02:34:51;;;;;;;;;;;;;;;25.45;56.32;100654.06;5087812;28;932;-57
2021/08/25 02:37:18;;;;;;;;;;;;;;;25.43;56.40;100657.84;5087800;28;1327;-59
2021/08/25 02:39:45;;;;;;;;;;;;;;;25.36;57.06;100657.53;5087784;28;770;-59
2021/08/25 02:42:11;;;;;;;;;;;;;;;25.39;57.34;100673.25;5087468;28;1306;-58
2021/08/25 02:44:38;;;;;;;;;;;;;;;25.39;57.05;100677.75;5087790;28;1075;-58
2021/08/25 02:47:05;;;;;;;;;;;;;;;25.40;57.39;100677.63;5087135;28;1220;-58
2021/08/25 02:49:32;;;;;;;;;;;;;;;25.30;57.57;100652.72;5087210;28;1981;-59
2021/08/25 02:51:59;;;;;;;;;;;;;;;25.39;57.54;100673.25;5087452;28;1250;-59
2021/08/25 02:54:25;;;;;;;;;;;;;;;25.40;57.08;100674.09;5087688;28;1465;-59
2021/08/25 02:56:52;;;;;;;;;;;;;;;25.41;57.38;100668.63;5087309;28;1205;-59
2021/08/25 02:59:19;;;;;;;;;;;;;;;25.36;57.74;100684.19;5087846;28;1093;-59
2021/08/25 03:01:45;;;;;;;;;;;;;;;25.35;57.72;100677.16;5087298;28;1160;-58
2021/08/25 03:04:12;;;;;;;;;;;;;;;25.35;57.71;100692.31;5087854;28;1000;-58
2021/08/25 03:06:39;;;;;;;;;;;;;;;25.35;57.48;100687.81;5087273;28;1169;-58
2021/08/25 03:09:06;;;;;;;;;;;;;;;25.35;57.34;100677.16;5069680;28;1973;-58
2021/08/25 03:11:33;;;;;;;;;;;;;;;25.35;57.39;100687.00;5091242;28;1238;-59
2021/08/25 03:14:00;;;;;;;;;;;;;;;25.36;57.38;100670.84;5072834;28;1353;-58
2021/08/25 03:16:27;;;;;;;;;;;;;;;25.35;57.45;100679.00;5091186;28;1307;-59
2021/08/25 03:18:54;;;;;;;;;;;;;;;25.37;57.24;100675.22;5091713;28;1259;-57
2021/08/25 03:21:20;;;;;;;;;;;;;;;25.37;56.83;100677.03;5090937;28;1304;-58
2021/08/25 03:23:47;;;;;;;;;;;;;;;25.37;56.96;100672.56;5091621;28;1076;-58
2021/08/25 03:26:14;;;;;;;;;;;;;;;25.38;56.53;100666.22;5091099;28;1216;-58
2021/08/25 03:28:41;;;;;;;;;;;;;;;25.38;56.33;100666.22;5091440;28;1982;-58
2021/08/25 03:31:07;;;;;;;;;;;;;;;25.40;56.66;100664.28;5073002;28;1268;-58
2021/08/25 03:33:34;;;;;;;;;;;;;;;25.39;56.80;100657.25;5091174;28;1042;-56
2021/08/25 03:36:01;;;;;;;;;;;;;;;25.39;56.64;100659.91;5090735;28;1295;-57
2021/08/25 03:38:27;;;;;;;;;;;;;;;25.37;56.89;100653.88;5090989;28;914;-56
2021/08/25 03:40:54;;;;;;;;;;;;;;;25.35;56.81;100653.16;5090556;28;1255;-58
2021/08/25 03:43:21;;;;;;;;;;;;;;;25.36;56.90;100635.34;5090591;28;1068;-59
2021/08/25 03:45:48;;;;;;;;;;;;;;;25.35;56.92;100637.16;5072148;28;1284;-58
2021/08/25 03:48:15;;;;;;;;;;;;;;;25.31;57.00;100637.56;5090690;28;1969;-60
2021/08/25 03:50:41;;;;;;;;;;;;;;;25.29;56.81;100635.03;5089619;28;1285;-59
2021/08/25 03:53:08;;;;;;;;;;;;;;;25.29;57.18;100642.19;5090445;28;916;-60
2021/08/25 03:55:35;;;;;;;;;;;;;;;25.32;56.85;100640.09;5071803;28;1632;-58
2021/08/25 03:58:01;;;;;;;;;;;;;;;25.31;56.94;100638.41;5090630;28;1136;-58
2021/08/25 04:00:28;;;;;;;;;;;;;;;25.29;57.16;100648.34;5090264;28;1228;-59
2021/08/25 04:02:55;;;;;;;;;;;;;;;25.29;56.79;100645.69;5090615;28;1165;-59
2021/08/25 04:05:22;;;;;;;;;;;;;;;25.25;57.36;100648.75;5090404;28;1236;-58
2021/08/25 04:07:48;;;;;;;;;;;;;;;25.28;57.16;100644.00;5090654;28;921;-59
2021/08/25 04:10:16;;;;;;;;;;;;;;;25.27;57.26;100649.47;5071691;28;1917;-59
2021/08/25 04:12:42;;;;;;;;;;;;;;;25.24;56.96;100647.06;5090190;28;1271;-59
2021/08/25 04:15:09;;;;;;;;;;;;;;;25.21;57.39;100642.84;5090413;28;794;-58
2021/08/25 04:17:36;;;;;;;;;;;;;;;25.24;57.12;100636.41;5095193;28;1475;-58
2021/08/25 04:20:03;;;;;;;;;;;;;;;25.25;56.91;100640.75;5074168;28;863;-59
2021/08/25 04:22:30;;;;;;;;;;;;;;;25.27;56.56;100639.66;5104973;28;1327;-59
2021/08/25 04:24:56;;;;;;;;;;;;;;;25.29;56.70;100648.34;5107350;28;1087;-59
2021/08/25 04:27:23;;;;;;;;;;;;;;;25.25;57.12;100640.75;5090127;28;1343;-58
2021/08/25 04:29:50;;;;;;;;;;;;;;;25.25;56.67;100643.44;5071251;28;1992;-59
2021/08/25 04:32:17;;;;;;;;;;;;;;;25.24;56.93;100637.25;5063766;28;1218;-59
2021/08/25 04:34:43;;;;;;;;;;;;;;;25.20;56.77;100637.66;5089523;28;825;-59
2021/08/25 04:37:10;;;;;;;;;;;;;;;25.18;56.66;100636.91;5089743;28;1250;-59
2021/08/25 04:39:37;;;;;;;;;;;;;;;25.22;56.74;100625.88;5089914;28;1135;-59
2021/08/25 04:42:03;;;;;;;;;;;;;;;25.19;56.84;100626.16;5089698;28;1264;-59
2021/08/25 04:44:30;;;;;;;;;;;;;;;25.20;56.77;100630.47;5089873;28;809;-58
2021/08/25 04:46:57;;;;;;;;;;;;;;;25.18;56.64;100621.78;5071035;28;1232;-58
2021/08/25 04:49:23;;;;;;;;;;;;;;;25.22;56.15;100625.88;5089469;28;1971;-59
2021/08/25 04:51:50;;;;;;;;;;;;;;;25.18;56.16;100627.09;5088528;28;1234;-59
2021/08/25 04:54:17;;;;;;;;;;;;;;;25.20;56.06;100629.66;5089136;28;1158;-58
2021/08/25 04:56:44;;;;;;;;;;;;;;;25.17;56.06;100625.41;5070628;28;1323;-58
2021/08/25 04:59:10;;;;;;;;;;;;;;;25.22;56.08;100631.22;5072112;27;1523;-59
2021/08/25 05:01:37;;;;;;;;;;;;;;;25.17;55.90;100633.41;5100965;28;1447;-58
2021/08/25 05:04:04;;;;;;;;;;;;;;;25.16;55.92;100634.41;5100470;28;1640;-58
2021/08/25 05:06:30;;;;;;;;;;;;;;;25.19;55.99;100636.81;5098004;28;1215;-58
2021/08/25 05:08:57;;;;;;;;;;;;;;;25.20;55.95;100643.81;5109497;28;1967;-58
2021/08/25 05:11:24;;;;;;;;;;;;;;;25.13;56.19;100644.47;5092122;28;1385;-58
2021/08/25 05:13:50;;;;;;;;;;;;;;;25.13;55.54;100644.47;5089562;28;1018;-59
2021/08/25 05:16:17;;;;;;;;;;;;;;;25.18;55.70;100647.59;5089143;28;1345;-58
2021/08/25 05:18:44;;;;;;;;;;;;;;;25.18;55.62;100651.09;5089581;28;1119;-58
2021/08/25 05:21:11;;;;;;;;;;;;;;;25.18;55.41;100658.25;5088876;28;1216;-58
2021/08/25 05:23:37;;;;;;;;;;;;;;;25.20;55.19;100654.47;5089453;28;1113;-58
2021/08/25 05:26:05;;;;;;;;;;;;;;;25.20;55.10;100657.13;5088899;28;1321;-59
2021/08/25 05:28:33;;;;;;;;;;;;;;;25.24;54.79;100655.06;5089151;28;1032;-59
2021/08/25 05:31:00;;;;;;;;;;;;;;;25.20;55.21;100661.66;5088924;28;1905;-59
2021/08/25 05:33:27;;;;;;;;;;;;;;;25.23;54.77;100662.19;5068812;28;1343;-59
2021/08/25 05:35:54;;;;;;;;;;;;;;;25.19;54.85;100655.47;5088404;28;1220;-59
2021/08/25 05:38:20;;;;;;;;;;;;;;;25.21;55.02;100666.84;5088552;28;1485;-59
2021/08/25 05:40:47;;;;;;;;;;;;;;;25.20;55.11;100658.97;5088643;28;1228;-59
2021/08/25 05:43:17;;;;;;;;;;;;;;;25.21;54.68;100657.97;5088433;28;1040;-59
2021/08/25 05:45:44;;;;;;;;;;;;;;;25.22;55.00;100665.00;5096347;27;1585;-61
2021/08/25 05:48:11;;;;;;;;;;;;;;;25.26;54.93;100655.78;5089918;28;952;-60
2021/08/25 05:50:38;;;;;;;;;;;;;;;25.24;54.53;100653.25;5087263;28;1910;-60
2021/08/25 05:53:04;;;;;;;;;;;;;;;25.25;54.69;100662.09;5087853;28;1442;-61
2021/08/25 05:55:33;;;;;;;;;;;;;;;25.26;54.77;100663.78;5097571;28;1641;-61
2021/08/25 05:57:59;;;;;;;;;;;;;;;25.24;54.54;100658.56;5099749;28;1132;-61
2021/08/25 06:00:26;;;;;;;;;;;;;;;25.26;54.22;100666.44;5107426;28;1224;-61
2021/08/25 06:02:53;;;;;;;;;;;;;;;25.27;54.14;100668.97;5107795;28;1050;-59
2021/08/25 06:05:21;;;;;;;;;;;;;;;25.27;54.28;100668.97;5087063;28;1228;-60
2021/08/25 06:07:47;;;;;;;;;;;;;;;25.25;54.06;100665.59;5086880;28;1012;-59
2021/08/25 06:10:14;;;;;;;;;;;;;;;25.28;54.01;100664.50;5069089;28;1910;-62
2021/08/25 06:12:41;;;;;;;;;;;;;;;25.27;53.80;100658.31;5068931;28;1378;-60
2021/08/25 06:15:08;;;;;;;;;;;;;;;25.28;53.34;100660.00;5087373;28;802;-62
2021/08/25 06:17:35;;;;;;;;;;;;;;;25.30;52.99;100655.38;5087337;28;1200;-61
2021/08/25 06:20:02;;;;;;;;;;;;;;;25.31;52.31;100650.91;5087366;28;836;-61
2021/08/25 06:22:29;;;;;;;;;;;;;;;25.30;52.20;100654.53;5086949;28;1287;-62
2021/08/25 06:24:56;;;;;;;;;;;;;;;25.30;51.98;100658.03;5086572;28;822;-59
2021/08/25 06:27:24;;;;;;;;;;;;;;;25.30;51.74;100650.06;5087034;28;1153;-60
2021/08/25 06:29:50;;;;;;;;;;;;;;;25.30;51.37;100658.03;5086957;28;1930;-60
2021/08/25 06:32:17;;;;;;;;;;;;;;;25.31;50.98;100667.75;5086788;28;1240;-60
2021/08/25 06:34:44;;;;;;;;;;;;;;;25.32;50.87;100672.06;5086727;28;769;-61
2021/08/25 06:37:12;;;;;;;;;;;;;;;25.31;51.14;100667.75;5087929;28;1243;-61
2021/08/25 06:39:39;;;;;;;;;;;;;;;25.35;51.35;100671.81;5086398;28;1121;-61
2021/08/25 06:42:06;;;;;;;;;;;;;;;25.34;51.00;100667.47;5087423;28;1244;-62
2021/08/25 06:44:33;;;;;;;;;;;;;;;25.34;50.93;100671.97;5088840;28;762;-63
2021/08/25 06:47:00;;;;;;;;;;;;;;;25.35;51.42;100673.66;5091727;28;1341;-63
2021/08/25 06:49:26;;;;;;;;;;;;;;;25.35;50.84;100671.81;5091439;28;1975;-63
2021/08/25 06:51:53;;;;;;;;;;;;;;;25.37;51.20;100677.03;5090986;28;1284;-62
2021/08/25 06:54:20;;;;;;;;;;;;;;;25.36;50.67;100670.00;5072914;28;1409;-62
2021/08/25 06:56:47;;;;;;;;;;;;;;;25.38;50.73;100670.72;5091292;28;1235;-62
2021/08/25 06:59:13;;;;;;;;;;;;;;;25.37;50.84;100667.22;5091755;28;1326;-62
2021/08/25 07:01:40;;;;;;;;;;;;;;;25.38;50.79;100666.22;5094104;27;1549;-63
2021/08/25 07:04:07;;;;;;;;;;;;;;;25.39;50.57;100661.75;5082260;28;920;-63
2021/08/25 07:06:34;;;;;;;;;;;;;;;25.40;50.95;100669.63;5072883;28;1309;-62
2021/08/25 07:09:04;;;;;;;;;;;;;;;25.44;51.09;100664.88;5091497;28;1170;-62
2021/08/25 07:11:33;;;;;;;;;;;;;;;25.44;51.03;100659.53;5073037;28;1390;-61
2021/08/25 07:14:00;;;;;;;;;;;;;;;25.44;51.24;100660.34;5072792;28;1196;-62
2021/08/25 07:16:27;;;;;;;;;;;;;;;25.45;51.25;100659.38;5092591;28;1609;-61
2021/08/25 07:18:54;;;;;;;;;;;;;;;25.47;51.00;100659.28;5099839;28;1243;-62
2021/08/25 07:21:21;;;;;;;;;;;;;;;25.47;51.37;100654.75;5106625;28;1298;-61
2021/08/25 07:23:50;;;;;;;;;;;;;;;25.49;51.76;100652.00;5090953;28;1218;-62
2021/08/25 07:26:17;;;;;;;;;;;;;;;25.49;50.89;100652.00;5108700;28;1895;-63
2021/08/25 07:28:46;;;;;;;;;;;;;;;25.47;50.83;100651.28;5093263;28;1118;-64
2021/08/25 07:31:13;;;;;;;;;;;;;;;25.44;50.32;100649.69;5105784;28;1905;-63
2021/08/25 07:33:41;;;;;;;;;;;;;;;25.45;49.80;100651.38;5111677;28;1045;-63
2021/08/25 07:36:08;;;;;;;;;;;;;;;25.47;50.76;100657.44;5111298;28;1337;-63
2021/08/25 07:38:35;;;;;;;;;;;;;;;25.39;49.89;100657.25;5102989;28;1134;-62
2021/08/25 07:41:02;;;;;;;;;;;;;;;25.40;50.41;100653.63;5093127;28;1545;-63
2021/08/25 07:43:29;;;;;;;;;;;;;;;25.40;50.06;100664.28;5079427;28;1276;-63
2021/08/25 07:45:56;;;;;;;;;;;;;;;25.39;49.13;100659.91;5081211;28;1551;-64
2021/08/25 07:48:23;;;;;;;;;;;;;;;25.40;49.65;100652.78;5090017;28;1048;-63
2021/08/25 07:50:52;;;;;;;;;;;;;;;25.41;49.04;100660.63;5089652;28;1918;-65
2021/08/25 07:53:19;;;;;;;;;;;;;;;25.41;49.59;100663.28;5071587;28;1599;-66
2021/08/25 07:55:46;;;;;;;;;;;;;;;25.40;49.22;100674.97;5074298;28;1758;-63
2021/08/25 07:58:13;;;;;;;;;;;;;;;25.39;50.11;100678.59;5089978;28;1238;-62
2021/08/25 08:00:40;;;;;;;;;;;;;;;25.37;48.81;100683.22;5086370;28;1303;-61
2021/08/25 08:03:07;;;;;;;;;;;;;;;25.40;49.36;100690.94;5108313;28;1517;-63
2021/08/25 08:05:35;;;;;;;;;;;;;;;25.42;49.47;100685.47;5088842;28;1546;-62
2021/08/25 08:08:02;;;;;;;;;;;;;;;25.43;49.21;100689.84;5108709;28;1055;-62
2021/08/25 08:10:48;;;;;;;;;;;;;;;25.41;49.59;100695.28;5108673;28;1929;-62
2021/08/25 08:13:15;;;;;;;;;;;;;;;25.38;49.12;100697.41;5103137;28;1201;-63
2021/08/25 08:15:44;;;;;;;;;;;;;;;25.39;49.57;100696.41;5108747;28;1233;-62
2021/08/25 08:18:15;;;;;;;;;;;;;;;25.41;49.49;100699.81;5089476;28;1080;-63
2021/08/25 08:20:42;;;;;;;;;;;;;;;25.37;49.44;100707.22;5107254;28;1295;-62
2021/08/25 08:23:08;;;;;;;;;;;;;;;25.35;49.75;100703.81;5089633;28;1092;-63
2021/08/25 08:25:35;;;;;;;;;;;;;;;25.38;49.66;100718.72;5090033;28;1224;-62
2021/08/25 08:28:02;;;;;;;;;;;;;;;25.41;49.62;100721.94;5108160;28;1051;-63
2021/08/25 08:30:30;;;;;;;;;;;;;;;25.45;49.92;100718.06;5107838;28;1987;-64
2021/08/25 08:32:57;;;;;;;;;;;;;;;25.45;50.02;100718.06;5109150;28;962;-63
2021/08/25 08:35:24;;;;;;;;;;;;;;;25.46;49.36;100721.56;5090526;28;1712;-62
2021/08/25 08:37:51;;;;;;;;;;;;;;;25.46;49.72;100730.44;5109379;28;1070;-62
2021/08/25 08:40:18;;;;;;;;;;;;;;;25.45;48.64;100728.72;5108781;28;1018;-64
2021/08/25 08:42:45;;;;;;;;;;;;;;;25.49;48.78;100738.19;5102421;27;1608;-61
2021/08/25 08:45:13;;;;;;;;;;;;;;;25.50;49.48;100742.53;5090031;28;1531;-62
2021/08/25 08:47:41;;;;;;;;;;;;;;;25.50;49.49;100742.53;5071409;28;1609;-67
2021/08/25 08:50:08;;;;;;;;;;;;;;;25.47;49.01;100732.09;5089687;28;1910;-64
2021/08/25 08:52:35;;;;;;;;;;;;;;;25.53;48.88;100741.47;5089341;28;1307;-64
2021/08/25 08:55:02;;;;;;;;;;;;;;;25.53;49.02;100739.59;5089507;28;1512;-64
2021/08/25 08:57:29;;;;;;;;;;;;;;;25.53;49.00;100736.94;5089742;28;1252;-63
2021/08/25 08:59:58;;;;;;;;;;;;;;;25.48;48.54;100743.63;5089359;28;832;-63
2021/08/25 09:02:56;;;;;;;;;;;;;;;25.45;48.16;100739.38;5088966;28;1353;-64
2021/08/25 09:05:27;;;;;;;;;;;;;;;25.47;48.84;100748.09;5085550;28;1204;-70
2021/08/25 09:07:58;;;;;;;;;;;;;;;25.49;49.54;100751.53;5070417;28;1059;-73
2021/08/25 09:10:33;;;;;;;;;;;;;;;25.46;50.79;100759.75;5069644;28;1910;-68
2021/08/25 09:13:19;;;;;;;;;;;;;;;25.45;51.72;100768.72;5086182;28;1136;-68
2021/08/25 09:15:46;;;;;;;;;;;;;;;25.42;50.48;100758.31;5053673;28;1365;-68
2021/08/25 09:18:19;;;;;;;;;;;;;;;25.41;50.49;100759.28;5088947;28;1439;-66
2021/08/25 09:20:53;;;;;;;;;;;;;;;25.45;50.76;100767.88;5071526;28;1209;-67
2021/08/25 09:23:22;;;;;;;;;;;;;;;25.47;49.60;100771.28;5070247;28;1498;-67
2021/08/25 09:26:09;;;;;;;;;;;;;;;25.48;49.83;100762.28;5088539;28;1279;-68
2021/08/25 09:28:38;;;;;;;;;;;;;;;25.55;49.96;100766.16;5070381;28;1184;-68
2021/08/25 09:31:13;;;;;;;;;;;;;;;25.56;49.93;100764.34;5070181;28;1922;-68
2021/08/25 09:33:42;;;;;;;;;;;;;;;25.57;50.66;100766.00;5070147;28;1052;-68
2021/08/25 09:36:29;;;;;;;;;;;;;;;25.51;50.39;100760.25;5085745;28;1302;-69
2021/08/25 09:38:58;;;;;;;;;;;;;;;25.50;51.27;100766.53;5088875;28;1142;-68
2021/08/25 09:41:31;;;;;;;;;;;;;;;25.50;50.79;100765.72;5070052;28;1568;-69
2021/08/25 09:44:12;;;;;;;;;;;;;;;25.51;51.47;100768.25;5088049;28;1196;-68
2021/08/25 09:47:17;;;;;;;;;;;;;;;25.57;51.08;100768.69;5085527;28;1240;-67
2021/08/25 09:50:04;;;;;;;;;;;;;;;25.56;51.23;100770.53;5070061;28;1671;-68
2021/08/25 09:52:34;;;;;;;;;;;;;;;25.54;50.69;100767.97;5088025;28;1240;-67
2021/08/25 09:55:09;;;;;;;;;;;;;;;25.57;51.01;100774.03;5087888;28;1476;-67
2021/08/25 09:57:41;;;;;;;;;;;;;;;25.54;50.64;100769.78;5069259;28;1691;-68
2021/08/25 10:00:12;;;;;;;;;;;;;;;25.54;49.10;100777.78;5069853;28;1416;-67
2021/08/25 10:02:40;;;;;;;;;;;;;;;25.54;49.81;100778.66;5053191;28;1529;-67
2021/08/25 10:05:09;;;;;;;;;;;;;;;25.58;50.14;100776.56;5069396;28;1250;-66
2021/08/25 10:07:46;;;;;;;;;;;;;;;25.58;50.67;100773.91;5069575;28;1616;-67
2021/08/25 10:10:17;;;;;;;;;;;;;;;25.60;49.74;100773.75;5069398;28;1993;-66
2021/08/25 10:12:48;;;;;;;;;;;;;;;25.60;49.97;100777.28;5068475;28;1114;-68
2021/08/25 10:15:38;;;;;;;;;;;;;;;25.64;50.85;100769.88;5088016;28;1338;-68
2021/08/25 10:18:25;;;;;;;;;;;;;;;25.65;50.17;100774.22;5069443;28;1297;-67
2021/08/25 10:20:56;;;;;;;;;;;;;;;25.64;50.16;100777.88;5068874;28;1793;-67
2021/08/25 10:23:43;;;;;;;;;;;;;;;25.59;50.83;100764.94;5069553;28;1327;-67
2021/08/25 10:26:10;;;;;;;;;;;;;;;25.60;49.03;100771.09;5052803;28;1334;-68
2021/08/25 10:29:09;;;;;;;;;;;;;;;25.64;49.96;100764.53;5069509;28;1049;-68
2021/08/25 10:31:48;;;;;;;;;;;;;;;25.70;49.59;100772.00;5069731;28;1918;-68
2021/08/25 10:34:27;;;;;;;;;;;;;;;25.70;49.08;100766.66;5054284;28;1192;-69
2021/08/25 10:37:10;;;;;;;;;;;;;;;25.69;49.68;100764.97;5069896;28;1327;-68
2021/08/25 10:39:39;;;;;;;;;;;;;;;25.72;49.29;100770.03;5088052;28;955;-67
2021/08/25 10:42:17;;;;;;;;;;;;;;;25.74;48.55;100771.63;5069615;28;1596;-67
2021/08/25 10:44:58;;;;;;;;;;;;;;;25.75;49.27;100772.44;5055473;28;1663;-69
2021/08/25 10:47:58;;;;;;;;;;;;;;;25.70;47.77;100777.34;5069175;28;1252;-68
2021/08/25 10:50:48;;;;;;;;;;;;;;;25.63;50.19;100776.16;5069318;28;1974;-66
2021/08/25 10:53:30;;;;;;;;;;;;;;;25.60;48.45;100773.75;5060886;28;1161;-67
2021/08/25 10:56:15;;;;;;;;;;;;;;;25.59;46.89;100780.94;5087904;28;1398;-66
2021/08/25 10:59:03;;;;;;;;;;;;;;;25.67;47.64;100783.78;5072506;28;1334;-62
2021/08/25 11:01:47;;;;;;;;;;;;;;;25.57;48.02;100782.88;5103757;28;1303;-63
2021/08/25 11:04:18;;;;;;;;;;;;;;;25.43;46.96;100784.03;5087820;28;1605;-63
2021/08/25 11:07:09;;;;;;;;;;;;;;;25.38;46.74;100783.53;5090148;28;1287;-64
2021/08/25 11:09:42;;;;;;;;;;;;;;;25.33;46.45;100784.91;5075975;28;1506;-65
2021/08/25 11:12:25;;;;;;;;;;;;;;;25.31;46.87;100792.19;5067851;28;1985;-64
2021/08/25 11:14:53;;;;;;;;;;;;;;;25.30;47.13;100786.03;5102000;28;1001;-62
2021/08/25 11:17:21;;;;;;;;;;;;;;;25.28;47.19;100789.78;5093068;28;1311;-63
2021/08/25 11:19:49;;;;;;;;;;;;;;;25.27;47.73;100782.75;5084178;28;1523;-63
2021/08/25 11:22:19;;;;;;;;;;;;;;;25.26;48.04;100781.91;5107487;28;1299;-62
2021/08/25 11:24:52;;;;;;;;;;;;;;;25.24;48.80;100786.53;5090558;28;975;-60
2021/08/25 11:27:29;;;;;;;;;;;;;;;25.18;48.68;100779.03;5086997;28;1315;-62
2021/08/25 11:30:19;;;;;;;;;;;;;;;25.19;48.47;100786.09;5082206;28;1151;-62
2021/08/25 11:33:12;;;;;;;;;;;;;;;25.22;48.55;100788.50;5086935;28;1585;-63
2021/08/25 11:35:44;;;;;;;;;;;;;;;25.21;49.10;100786.78;5092268;28;1304;-64
2021/08/25 11:38:15;;;;;;;;;;;;;;;25.21;48.86;100780.59;5071514;28;1590;-61
2021/08/25 11:40:46;;;;;;;;;;;;;;;25.20;49.39;100778.94;5087508;28;1279;-61
2021/08/25 11:43:15;;;;;;;;;;;;;;;25.21;50.20;100778.78;5081121;28;1042;-62
2021/08/25 11:45:44;;;;;;;;;;;;;;;25.23;51.43;100779.50;5090665;28;1343;-59
2021/08/25 11:48:11;;;;;;;;;;;;;;;25.21;50.48;100777.94;5106547;28;949;-62
2021/08/25 11:50:40;;;;;;;;;;;;;;;25.20;49.99;100773.59;5070231;28;1914;-60
2021/08/25 11:53:21;;;;;;;;;;;;;;;25.12;50.83;100782.22;5070235;28;1309;-60
2021/08/25 11:55:50;;;;;;;;;;;;;;;25.13;51.19;100778.59;5062147;28;1618;-58
2021/08/25 11:58:29;;;;;;;;;;;;;;;25.11;51.51;100780.53;5069632;28;1478;-59
2021/08/25 12:01:22;;;;;;;;;;;;;;;25.03;50.48;100777.66;5070522;28;1233;-62
2021/08/25 12:03:49;;;;;;;;;;;;;;;25.05;50.83;100772.22;5070855;28;1018;-60
2021/08/25 12:06:19;;;;;;;;;;;;;;;24.99;51.00;100773.53;5070824;28;1228;-61
2021/08/25 12:08:50;;;;;;;;;;;;;;;25.02;50.81;100769.81;5071631;28;1149;-61
2021/08/25 12:11:19;;;;;;;;;;;;;;;25.01;51.17;100779.63;5082228;28;1902;-63
2021/08/25 12:13:58;;;;;;;;;;;;;;;25.04;51.43;100778.50;5071763;28;1002;-68
2021/08/25 12:16:30;;;;;;;;;;;;;;;25.05;51.37;100781.03;5084105;28;1391;-62
2021/08/25 12:19:00;;;;;;;;;;;;;;;25.06;51.67;100792.53;5087702;28;1217;-63
2021/08/25 12:21:46;;;;;;;;;;;;;;;25.04;52.08;100794.50;5089425;28;1296;-60
2021/08/25 12:24:15;;;;;;;;;;;;;;;25.06;52.07;100782.72;5088574;28;1277;-62
2021/08/25 12:26:54;;;;;;;;;;;;;;;25.07;51.49;100778.25;5071884;28;1213;-61
2021/08/25 12:29:28;;;;;;;;;;;;;;;25.13;51.87;100775.94;5080891;28;1034;-64
2021/08/25 12:31:58;;;;;;;;;;;;;;;25.05;51.53;100783.69;5089644;28;1910;-61
2021/08/25 12:34:26;;;;;;;;;;;;;;;25.05;52.27;100781.03;5088551;28;1467;-59
2021/08/25 12:36:56;;;;;;;;;;;;;;;25.01;51.48;100787.59;5089892;28;1313;-60
2021/08/25 12:39:41;;;;;;;;;;;;;;;25.00;52.20;100769.91;5088444;28;1182;-57
2021/08/25 12:42:14;;;;;;;;;;;;;;;25.05;52.07;100775.69;5087821;28;1368;-59
2021/08/25 12:44:42;;;;;;;;;;;;;;;25.04;51.86;100781.19;5089625;28;793;-62
2021/08/25 12:47:11;;;;;;;;;;;;;;;25.06;52.24;100787.22;5071422;28;1346;-60
2021/08/25 12:49:38;;;;;;;;;;;;;;;25.09;52.31;100781.63;5089666;28;786;-63
2021/08/25 12:52:05;;;;;;;;;;;;;;;25.24;53.40;100783.88;5073466;28;1981;-56
2021/08/25 12:54:32;;;;;;;;;;;;;;;25.34;52.70;100779.47;5119754;27;1842;-60
2021/08/25 12:56:59;;;;;;;;;;;;;;;25.48;54.80;100781.84;5130101;27;1248;-57
2021/08/25 12:59:25;;;;;;;;;;;;;;;25.49;54.25;100780.88;5130506;27;823;-56
2021/08/25 13:01:52;;;;;;;;;;;;;;;25.55;54.45;100790.16;5130376;27;1185;-56